Latest Weather Observations for Minnipa RS

IDS60801

Issued at 10:01 am CDT Wednesday 18 January 2017 (issued every 30 minutes, with the page automatically refreshed every 10 minutes)

About weather observations | Map of weather stations | Latest weather observations for SA | Other Formats
Station Details ID: 018195 Name: MINNIPA PIRSA Lat: -32.84 Lon: 135.15 Height: 165.0 m
Data from the previous 72 hours. | See also: Recent months at Minnipa RS
Date/Time
CDT
Temp
°C
App
Temp
°C
Dew
Point
°C
Rel
Hum
%
Delta-T
°C
Wind Press
QNH
hPa
Press
MSL
hPa
Rain since
9am
mm
Dir  Spd
km/h
Gust
km/h
Spd
kts
Gust
kts
18/10:00am 21.1 14.9 15.0 68 3.6 SE 41 50 22 27 1013.7 1012.9 0.0
18/09:30am 20.6 15.2 14.9 70 3.4 SE 37 50 20 27 1013.9 1013.1 0.0
18/09:00am 20.3 15.0 15.3 73 3.0 SE 37 48 20 26 1014.0 1013.2 0.0
18/08:30am 19.7 13.9 14.9 74 2.8 SE 39 54 21 29 1013.7 1012.9 0.0
18/08:00am 19.6 15.3 15.5 77 2.4 SE 32 41 17 22 1013.7 1012.9 0.0
18/07:30am 18.7 15.0 15.0 79 2.2 SE 28 35 15 19 1013.7 1012.9 0.0
18/07:00am 18.4 14.3 14.9 80 2.1 SSE 30 39 16 21 1013.4 1012.6 0.0
18/06:30am 18.1 14.0 14.8 81 1.9 SE 30 39 16 21 1012.8 1012.0 0.0
18/06:00am 18.0 14.7 14.9 82 1.8 SSE 26 35 14 19 1012.5 1011.7 0.0
18/05:30am 17.6 14.6 14.7 83 1.7 SSE 24 32 13 17 1012.1 1011.3 0.0
18/05:00am 17.8 14.8 14.7 82 1.8 SSE 24 30 13 16 1011.6 1010.7 0.0
18/04:30am 18.1 16.0 14.8 81 1.9 SSE 19 24 10 13 1011.3 1010.4 0.0
18/04:00am 18.5 15.5 14.8 79 2.2 SE 24 30 13 16 1010.7 1009.9 0.0
18/03:30am 18.7 15.0 15.0 79 2.2 ESE 28 35 15 19 1010.2 1009.4 0.0
18/03:00am 18.4 15.1 15.1 81 1.9 SE 26 35 14 19 1010.5 1009.7 0.0
18/02:30am 18.4 14.7 14.9 80 2.1 SE 28 35 15 19 1010.6 1009.8 0.0
18/02:00am 18.5 15.0 14.4 77 2.4 SE 26 33 14 18 1011.0 1010.1 0.0
18/01:30am 18.8 15.0 13.6 72 3.0 SE 26 35 14 19 1011.1 1010.2 0.0
18/01:00am 19.1 14.8 13.1 68 3.4 SSE 28 37 15 20 1011.2 1010.3 0.0
18/12:30am 19.6 15.9 12.8 65 3.9 SSE 24 32 13 17 1011.3 1010.4 0.0
18/12:00am 20.1 16.0 12.8 63 4.2 SE 26 33 14 18 1011.6 1010.7 0.0
 
Date/Time
CDT
Temp
°C
App
Temp
°C
Dew
Point
°C
Rel
Hum
%
Delta-T
°C
Wind Press
QNH
hPa
Press
MSL
hPa
Rain since
9am
mm
Dir  Spd
km/h
Gust
km/h
Spd
kts
Gust
kts
17/11:30pm 20.7 16.3 12.9 61 4.5 SE 28 37 15 20 1011.5 1010.6 0.0
17/11:00pm 21.5 16.3 12.9 58 4.9 SE 32 43 17 23 1011.5 1010.6 0.0
17/10:30pm 23.1 17.9 13.3 54 5.7 SE 33 43 18 23 1011.1 1010.2 0.0
17/10:00pm 24.9 20.8 12.8 47 7.0 SE 26 35 14 19 1010.2 1009.4 0.0
17/09:30pm 25.3 21.8 14.4 50 6.5 SE 26 32 14 17 1009.6 1008.8 0.0
17/09:00pm 24.6 21.0 14.1 52 6.2 SE 26 33 14 18 1009.0 1008.2 0.0
17/08:30pm 25.3 20.3 13.5 48 7.0 SSE 32 41 17 22 1008.7 1007.9 0.0
17/08:00pm 26.9 22.1 12.9 42 8.2 S 30 39 16 21 1008.3 1007.5 0.0
17/07:30pm 30.0 24.1 9.0 27 11.8 S 30 44 16 24 1007.9 1007.1 0.0
17/07:00pm 33.9 26.3 3.7 15 15.8 SSW 33 44 18 24 1007.2 1006.4 0.0
17/06:30pm 35.4 27.8 2.8 13 17.0 SSW 32 43 17 23 1006.8 1006.0 0.0
17/06:00pm 37.3 30.1 3.1 12 18.2 SSW 30 43 16 23 1006.4 1005.6 0.0
17/05:30pm 38.8 31.0 1.7 10 19.4 SW 32 41 17 22 1006.3 1005.4 0.0
17/05:00pm 39.7 31.8 0.9 9 20.1 SSW 32 41 17 22 1006.1 1005.2 0.0
17/04:48pm 39.9 33.0 2.5 10 19.9 SSW 28 43 15 23 1005.9 1005.0 0.0
17/04:30pm 41.8 36.9 -3.1 6 22.3 WSW 13 20 7 11 1006.0 1005.1 0.0
17/04:00pm 41.5 36.6 -3.3 6 22.1 N 13 26 7 14 1006.0 1005.1 0.0
17/03:30pm 41.8 36.9 -3.1 6 22.3 NNW 13 24 7 13 1006.2 1005.3 0.0
17/03:00pm 41.9 35.6 -5.4 5 22.7 NW 19 26 10 14 1006.5 1005.7 0.0
17/02:30pm 41.6 35.4 -3.2 6 22.2 NW 20 30 11 16 1006.5 1005.7 0.0
17/02:00pm 41.0 34.7 -3.6 6 21.8 NNW 20 32 11 17 1007.2 1006.4 0.0
17/01:30pm 40.6 33.6 -3.9 6 21.6 NNW 24 35 13 19 1007.5 1006.7 0.0
17/01:00pm 39.7 33.0 -4.6 6 21.1 N 22 39 12 21 1007.8 1007.0 0.0
17/12:30pm 39.1 31.4 -2.9 7 20.5 N 28 46 15 25 1008.0 1007.2 0.0
17/12:22pm 39.4 31.7 -2.7 7 20.6 N 28 46 15 25 1008.0 1007.2 0.0
17/12:00pm 38.8 31.1 -3.2 7 20.4 N 28 39 15 21 1008.3 1007.5 0.0
17/11:30am 38.6 30.5 -3.3 7 20.3 NNW 30 39 16 21 1008.5 1007.7 0.0
17/11:00am 37.7 29.9 -0.6 9 19.2 N 30 41 16 22 1008.7 1007.9 0.0
17/10:30am 37.4 29.8 -2.4 8 19.4 N 28 35 15 19 1008.8 1008.0 0.0
17/10:00am 36.7 30.0 -1.3 9 18.7 N 24 30 13 16 1008.6 1007.8 0.0
17/09:30am 34.3 27.9 0.8 12 16.8 N 24 32 13 17 1008.4 1007.6 0.0
17/09:00am 32.3 26.0 1.4 14 15.5 NNE 24 32 13 17 1008.5 1007.7 0.0
17/08:30am 30.3 24.3 0.8 15 14.4 NNE 22 28 12 15 1008.5 1007.7 0.0
17/08:00am 28.9 23.0 1.4 17 13.5 NNE 22 32 12 17 1008.4 1007.6 0.0
17/07:30am 27.7 22.1 1.2 18 12.8 NNE 20 24 11 13 1008.1 1007.3 0.0
17/07:00am 27.2 21.5 0.8 18 12.6 NNE 20 26 11 14 1007.9 1007.1 0.0
17/06:30am 26.8 21.2 1.3 19 12.3 NNE 20 24 11 13 1007.7 1006.9 0.0
17/06:00am 25.7 20.5 2.4 22 11.4 NNE 19 20 10 11 1007.5 1006.7 0.0
17/05:30am 24.3 19.4 4.1 27 10.1 NE 19 20 10 11 1007.4 1006.6 0.0
17/05:00am 24.4 19.4 4.7 28 9.9 NE 20 24 11 13 1007.4 1006.6 0.0
17/04:30am 24.6 19.9 5.9 30 9.7 NE 20 22 11 12 1007.4 1006.6 0.0
17/04:00am 24.3 20.0 7.0 33 9.1 NE 19 20 10 11 1007.4 1006.6 0.0
17/03:30am 24.1 19.4 7.7 35 8.7 ENE 22 24 12 13 1007.5 1006.7 0.0
17/03:00am 24.0 19.3 7.6 35 8.7 ENE 22 26 12 14 1007.7 1006.9 0.0
17/02:30am 24.2 19.0 7.4 34 8.9 ENE 24 28 13 15 1008.0 1007.2 0.0
17/02:00am 24.5 20.1 7.2 33 9.1 ENE 20 24 11 13 1008.4 1007.6 0.0
17/01:30am 25.9 21.5 7.5 31 9.9 ENE 20 22 11 12 1008.5 1007.7 0.0
17/01:00am 26.6 22.1 7.1 29 10.4 E 20 22 11 12 1008.7 1007.9 0.0
17/12:30am 26.8 22.5 6.8 28 10.6 E 19 22 10 12 1009.0 1008.2 0.0
17/12:00am 25.5 22.4 7.1 31 9.8 ESE 13 19 7 10 1009.3 1008.5 0.0
 
Date/Time
CDT
Temp
°C
App
Temp
°C
Dew
Point
°C
Rel
Hum
%
Delta-T
°C
Wind Press
QNH
hPa
Press
MSL
hPa
Rain since
9am
mm
Dir  Spd
km/h
Gust
km/h
Spd
kts
Gust
kts
16/11:30pm 26.0 22.7 6.6 29 10.2 ESE 13 17 7 9 1009.5 1008.7 0.0
16/11:00pm 27.3 22.9 6.7 27 10.9 SE 19 20 10 11 1009.5 1008.7 0.0
16/10:30pm 27.8 23.9 7.1 27 11.1 SE 17 20 9 11 1009.4 1008.6 0.0
16/10:00pm 27.9 24.4 7.2 27 11.1 SE 15 19 8 10 1009.4 1008.6 0.0
16/09:30pm 29.3 25.3 6.7 24 12.2 SSE 17 20 9 11 1009.2 1008.4 0.0
16/09:00pm 30.9 26.8 6.0 21 13.4 SSE 17 22 9 12 1008.9 1008.1 0.0
16/08:30pm 32.7 28.4 5.3 18 14.7 S 17 22 9 12 1008.8 1008.0 0.0
16/08:00pm 34.0 29.2 4.6 16 15.7 S 19 24 10 13 1008.5 1007.7 0.0
16/07:30pm 35.2 29.8 4.7 15 16.4 SSW 22 30 12 16 1008.3 1007.5 0.0
16/07:00pm 36.3 30.5 4.6 14 17.1 SSW 24 32 13 17 1008.0 1007.2 0.0
16/06:30pm 38.5 34.4 0.0 9 19.6 NW 11 17 6 9 1007.9 1007.1 0.0
16/06:00pm 38.6 34.2 0.1 9 19.6 N 13 24 7 13 1008.0 1007.2 0.0
16/05:30pm 38.7 35.0 0.2 9 19.7 SSW 9 20 5 11 1008.2 1007.4 0.0
16/05:00pm 38.8 33.6 0.3 9 19.7 NNW 17 24 9 13 1008.6 1007.8 0.0
16/04:30pm 38.6 34.5 0.1 9 19.6 NW 11 22 6 12 1008.8 1008.0 0.0
16/04:00pm 37.1 32.9 -1.0 9 18.9 N 11 20 6 11 1009.0 1008.2 0.0
16/03:30pm 37.4 32.1 -0.8 9 19.1 NNW 17 26 9 14 1009.4 1008.6 0.0
16/03:00pm 37.1 32.7 0.4 10 18.6 WNW 13 20 7 11 1009.7 1008.9 0.0
16/02:30pm 36.8 32.6 1.5 11 18.2 NW 13 24 7 13 1010.0 1009.2 0.0
16/02:00pm 36.4 30.6 -0.1 10 18.3 NW 20 30 11 16 1010.5 1009.7 0.0
16/01:30pm 36.2 30.2 1.1 11 17.9 NW 22 32 12 17 1011.0 1010.1 0.0
16/01:00pm 35.7 30.2 1.9 12 17.4 NW 20 32 11 17 1011.3 1010.4 0.0
16/12:30pm 35.0 28.5 2.5 13 16.8 NNW 26 37 14 20 1011.4 1010.5 0.0
16/12:00pm 33.4 27.4 3.3 15 15.7 NNW 24 35 13 19 1011.6 1010.7 0.0
16/11:30am 33.2 26.0 3.1 15 15.6 NNW 30 41 16 22 1011.9 1011.1 0.0
16/11:00am 31.8 25.6 6.1 20 13.9 N 28 37 15 20 1012.2 1011.4 0.0
16/10:30am 30.7 25.6 7.8 24 12.6 N 24 35 13 19 1012.7 1011.9 0.0
16/10:00am 29.3 24.0 8.4 27 11.5 N 26 35 14 19 1013.0 1012.2 0.0
16/09:30am 27.4 22.6 8.8 31 10.2 N 24 30 13 16 1013.0 1012.2 0.0
16/09:00am 25.5 20.9 9.7 37 8.8 NNE 24 32 13 17 1013.1 1012.3 0.0
16/08:30am 23.9 20.1 9.9 41 7.7 NNE 20 30 11 16 1013.2 1012.4 0.0
16/08:00am 22.1 19.2 10.9 49 6.2 NNE 17 20 9 11 1013.2 1012.4 0.0
16/07:30am 20.0 17.0 10.7 55 5.1 NE 17 19 9 10 1013.0 1012.2 0.0
16/07:00am 17.9 15.3 10.8 63 3.9 NE 15 19 8 10 1013.1 1012.3 0.0
16/06:30am 17.7 14.7 10.6 63 3.8 NE 17 20 9 11 1012.7 1011.9 0.0
16/06:00am 17.3 14.2 10.4 64 3.7 NE 17 20 9 11 1012.7 1011.9 0.0
16/05:30am 17.9 14.2 10.0 60 4.2 NE 20 24 11 13 1012.4 1011.6 0.0
16/05:00am 18.1 14.0 10.0 59 4.3 ENE 22 26 12 14 1012.2 1011.4 0.0
16/04:30am 18.5 13.9 9.6 56 4.7 ENE 24 28 13 15 1012.2 1011.4 0.0
16/04:00am 18.7 14.1 9.5 55 4.9 ENE 24 26 13 14 1012.2 1011.4 0.0
16/03:30am 19.1 14.8 9.3 53 5.2 ENE 22 26 12 14 1012.1 1011.3 0.0
16/03:00am 19.1 15.3 9.9 55 4.9 ENE 20 24 11 13 1012.3 1011.5 0.0
16/02:30am 19.1 15.5 10.4 57 4.7 E 20 24 11 13 1012.5 1011.7 0.0
16/02:00am 19.1 15.7 11.2 60 4.3 E 20 26 11 14 1012.8 1012.0 0.0
16/01:30am 19.4 15.9 10.9 58 4.7 E 20 24 11 13 1013.0 1012.2 0.0
16/01:00am 19.3 16.5 11.3 60 4.4 ESE 17 20 9 11 1013.3 1012.5 0.0
16/12:30am 19.4 16.5 10.9 58 4.7 ESE 17 20 9 11 1013.4 1012.6 0.0
16/12:00am 19.8 17.2 10.8 56 4.9 ESE 15 19 8 10 1013.6 1012.8 0.0
 
Date/Time
CDT
Temp
°C
App
Temp
°C
Dew
Point
°C
Rel
Hum
%
Delta-T
°C
Wind Press
QNH
hPa
Press
MSL
hPa
Rain since
9am
mm
Dir  Spd
km/h
Gust
km/h
Spd
kts
Gust
kts
15/11:30pm 20.8 17.7 10.3 51 5.7 ESE 17 20 9 11 1013.7 1012.9 0.0
15/11:00pm 21.6 17.9 9.5 46 6.5 SE 19 20 10 11 1013.8 1013.0 0.0
15/10:30pm 22.8 18.8 9.2 42 7.4 SE 20 26 11 14 1013.7 1012.9 0.0
15/10:00pm 23.9 19.9 9.1 39 8.0 ESE 20 24 11 13 1013.7 1012.9 0.0
15/09:30pm 25.1 21.7 9.0 36 8.8 SE 17 22 9 12 1013.5 1012.7 0.0
15/09:00pm 26.1 23.7 11.5 40 8.4 SSE 15 20 8 11 1013.7 1012.9 0.0
15/08:30pm 27.6 25.6 10.3 34 9.8 S 11 20 6 11 1013.6 1012.8 0.0
15/08:00pm 30.3 26.8 5.6 21 13.1 SE 13 15 7 8 1013.4 1012.6 0.0
15/07:30pm 30.9 27.1 6.0 21 13.3 SE 15 22 8 12 1013.4 1012.6 0.0
15/07:00pm 31.1 27.6 5.5 20 13.6 SE 13 20 7 11 1013.5 1012.7 0.0
15/06:30pm 31.1 26.6 4.0 18 14.1 SSE 17 24 9 13 1013.6 1012.8 0.0
15/06:00pm 31.2 27.4 4.1 18 14.1 SSE 13 24 7 13 1013.8 1013.0 0.0
15/05:30pm 30.8 26.4 4.5 19 13.7 SE 17 24 9 13 1014.1 1013.3 0.0
15/05:00pm 30.8 25.8 3.8 18 13.9 SSE 19 26 10 14 1014.6 1013.8 0.0
15/04:30pm 30.9 27.2 4.6 19 13.8 SE 13 28 7 15 1015.0 1014.2 0.0
15/04:00pm 30.7 27.5 5.2 20 13.5 S 11 24 6 13 1015.4 1014.6 0.0
15/03:30pm 29.2 26.2 4.0 20 12.9 SE 9 17 5 9 1015.8 1015.0 0.0
15/03:00pm 28.8 25.6 5.0 22 12.4 ENE 11 20 6 11 1016.0 1015.2 0.0
15/02:30pm 28.2 24.1 4.5 22 12.2 E 15 22 8 12 1016.6 1015.8 0.0
15/02:00pm 27.6 23.5 4.6 23 11.8 ENE 15 24 8 13 1016.9 1016.2 0.0
15/01:30pm 27.2 24.2 7.6 29 10.6 E 13 22 7 12 1017.5 1016.7 0.0
15/01:00pm 26.1 22.6 7.2 30 10.1 ESE 15 20 8 11 1017.7 1016.9 0.0
15/12:30pm 25.1 22.1 7.7 33 9.3 E 13 20 7 11 1018.1 1017.3 0.0
15/12:00pm 24.0 21.3 10.3 42 7.6 ESE 15 22 8 12 1018.5 1017.7 0.0
15/11:30am 23.0 20.0 10.8 46 6.8 ESE 17 22 9 12 1018.9 1018.1 0.0
15/11:00am 21.3 17.9 10.5 50 5.9 ESE 19 26 10 14 1019.1 1018.3 0.0
15/10:30am 20.3 16.8 11.0 55 5.1 ESE 20 28 11 15 1019.4 1018.6 0.0

Other Formats:

Comma delimited format used in spreadsheet applications
http://www.bom.gov.au/fwo/IDS60801/IDS60801.95662.axf

JavaScript Object Notation format (JSON) in row-major order
http://www.bom.gov.au/fwo/IDS60801/IDS60801.95662.json